Sand Springs, Arizona
Current Conditions -  °F | °C
As of 6:56 PM on Tuesday 25 Nov 2014 (Local Time) from KINW Reporting Station
Clear Clear  
Wind Chill: 28°   Ceiling: Unl
Heat Index: 34°   Visibility: 10mi
Dew Point: -2°   Wind: 7mph
Humidity: 22%   Direction: 210°SSW
Pressure: 30.36"   Gusts: NA
Location:  35.8773°N, 110.619°W
Report Text: KINW 260156Z AUTO 21006KT 10SM CLR 01/M19 A3036 RMK AO2 SLP315 T00111189
Loading
Personal Weather Stations






























Interactive Weather Map New forecast layout! Learn more

10-Day Weather Forecast

Advertisements
Track Severe Weather on mobile